Time;durP1;ratioP1;P1;durP2;ratioP2;P2;SDS_P1;SDS_P2;PMS_P1;PMS_P2;Temp;Humidity;BMP_temperature;BMP_pressure;BME280_temperature;BME280_humidity;BME280_pressure;Samples;Min_cycle;Max_cycle;Signal;HPM_P1;HPM_P2
2021/04/30 00:00:28;;;;;;;8.43;7.73;;;9.60;99.90;;;;;;5061084;28;20199;-77
2021/04/30 00:02:54;;;;;;;8.00;7.40;;;9.50;99.90;;;;;;5072472;28;20202;-77
2021/04/30 00:05:20;;;;;;;8.50;7.80;;;9.40;99.90;;;;;;5072269;28;20667;-77
2021/04/30 00:07:47;;;;;;;8.20;7.60;;;9.40;99.90;;;;;;5054464;28;20244;-78
2021/04/30 00:10:14;;;;;;;9.30;8.50;;;9.40;99.90;;;;;;5046093;28;20240;-77
2021/04/30 00:12:40;;;;;;;8.13;7.53;;;9.30;99.90;;;;;;5072323;28;20604;-77
2021/04/30 00:15:08;;;;;;;8.30;7.70;;;9.30;99.90;;;;;;5072617;28;20197;-77
2021/04/30 00:17:34;;;;;;;8.37;7.73;;;9.30;99.90;;;;;;5054614;28;20201;-77
2021/04/30 00:20:01;;;;;;;8.97;8.17;;;9.40;99.90;;;;;;5054011;28;20281;-77
2021/04/30 00:22:27;;;;;;;8.80;8.00;;;9.30;99.90;;;;;;5054400;28;20235;-77
2021/04/30 00:24:53;;;;;;;8.90;8.10;;;9.30;99.90;;;;;;5054294;28;20195;-77
2021/04/30 00:27:21;;;;;;;8.10;7.50;;;9.30;99.90;;;;;;5071967;28;20201;-77
2021/04/30 00:29:47;;;;;;;8.60;7.83;;;9.30;99.90;;;;;;5053603;28;20226;-78
2021/04/30 00:32:13;;;;;;;7.87;7.27;;;9.40;99.90;;;;;;5072094;28;20189;-77
2021/04/30 00:34:40;;;;;;;8.30;7.70;;;9.40;99.90;;;;;;5053906;28;20625;-77
2021/04/30 00:37:07;;;;;;;8.77;8.07;;;9.30;99.90;;;;;;5063891;28;20577;-77
2021/04/30 00:39:33;;;;;;;8.77;8.07;;;9.30;99.90;;;;;;5072006;28;20577;-78
2021/04/30 00:41:59;;;;;;;8.57;7.87;;;9.20;99.90;;;;;;5055943;28;20219;-78
2021/04/30 00:44:26;;;;;;;8.50;7.80;;;9.30;99.90;;;;;;5075293;28;20198;-78
2021/04/30 00:46:53;;;;;;;9.33;8.53;;;9.30;99.90;;;;;;5057355;28;20209;-78
2021/04/30 00:49:19;;;;;;;10.17;9.27;;;9.20;99.90;;;;;;5075288;28;20709;-78
2021/04/30 00:51:45;;;;;;;9.80;9.00;;;9.10;99.90;;;;;;5057061;28;20198;-78
2021/04/30 00:54:12;;;;;;;9.70;8.90;;;9.00;99.90;;;;;;5057511;28;20190;-78
2021/04/30 00:56:38;;;;;;;9.57;8.77;;;9.00;99.90;;;;;;5057527;28;20198;-78
2021/04/30 00:59:05;;;;;;;8.67;7.97;;;9.00;99.90;;;;;;5071166;28;20225;-77
2021/04/30 01:01:34;;;;;;;9.50;8.70;;;9.00;99.90;;;;;;5075035;28;20190;-78
2021/04/30 01:04:00;;;;;;;9.27;8.50;;;9.00;99.90;;;;;;5075565;28;20228;-78
2021/04/30 01:06:27;;;;;;;10.93;10.00;;;8.90;99.90;;;;;;5075160;28;20658;-78
2021/04/30 01:08:54;;;;;;;9.80;9.00;;;8.90;99.90;;;;;;5057185;28;20366;-78
2021/04/30 01:11:20;;;;;;;10.43;9.63;;;8.80;99.90;;;;;;5057034;28;20193;-77
2021/04/30 01:13:46;;;;;;;10.20;9.40;;;8.80;99.90;;;;;;5057054;28;20206;-78
2021/04/30 01:16:13;;;;;;;10.10;9.20;;;8.80;99.90;;;;;;5056773;28;20607;-77
2021/04/30 01:18:41;;;;;;;9.97;9.03;;;8.80;99.90;;;;;;5074793;28;20280;-77
2021/04/30 01:21:08;;;;;;;9.33;8.63;;;8.80;99.90;;;;;;5056803;28;20280;-77
2021/04/30 01:23:45;;;;;;;9.93;9.10;;;8.70;99.90;;;;;;5056794;28;20693;-78
2021/04/30 01:26:11;;;;;;;10.27;9.47;;;8.70;99.90;;;;;;5074129;28;20192;-78
2021/04/30 01:28:37;;;;;;;9.67;8.87;;;8.70;99.90;;;;;;5048927;28;20205;-77
2021/04/30 01:31:04;;;;;;;9.87;9.07;;;8.70;99.90;;;;;;5074760;28;20197;-78
2021/04/30 01:33:30;;;;;;;10.33;9.53;;;8.70;99.90;;;;;;5056869;28;20210;-77
2021/04/30 01:35:56;;;;;;;10.77;9.87;;;8.70;99.90;;;;;;5074962;28;20595;-78
2021/04/30 01:38:23;;;;;;;10.10;9.30;;;8.70;99.90;;;;;;5074816;28;20620;-77
2021/04/30 01:40:50;;;;;;;10.33;9.33;;;8.70;99.90;;;;;;5074342;28;20575;-77
2021/04/30 01:43:18;;;;;;;9.90;9.10;;;8.70;99.90;;;;;;5074483;28;20558;-77
2021/04/30 01:45:51;;;;;;;11.13;10.23;;;8.70;99.90;;;;;;5074715;28;20205;-77
2021/04/30 01:48:19;;;;;;;10.87;9.87;;;8.70;99.90;;;;;;5074618;28;20693;-78
2021/04/30 01:50:46;;;;;;;10.63;9.83;;;8.70;99.90;;;;;;5056534;28;20210;-78
2021/04/30 01:53:15;;;;;;;10.07;9.07;;;8.60;99.90;;;;;;5056473;28;20209;-77
2021/04/30 01:55:42;;;;;;;10.30;9.50;;;8.50;99.90;;;;;;5073230;28;20600;-77
2021/04/30 01:58:10;;;;;;;11.67;10.60;;;8.50;99.90;;;;;;5056221;28;20695;-77
2021/04/30 02:00:36;;;;;;;11.83;10.83;;;8.50;99.90;;;;;;5074269;28;20666;-77
2021/04/30 02:03:03;;;;;;;11.30;10.20;;;8.50;99.90;;;;;;5074137;28;20202;-78
2021/04/30 02:05:31;;;;;;;11.60;10.70;;;8.50;99.90;;;;;;5056065;28;20202;-78
2021/04/30 02:08:02;;;;;;;11.30;10.40;;;8.60;99.90;;;;;;5074077;28;20231;-77
2021/04/30 02:10:29;;;;;;;11.67;10.67;;;8.60;99.90;;;;;;5073398;28;20193;-78
2021/04/30 02:12:56;;;;;;;11.53;10.53;;;8.60;99.90;;;;;;5055789;28;20202;-77
2021/04/30 02:15:25;;;;;;;11.97;10.87;;;8.50;99.90;;;;;;5074237;28;20198;-77
2021/04/30 02:17:52;;;;;;;11.23;10.33;;;8.50;99.90;;;;;;5073568;28;20246;-77
2021/04/30 02:20:20;;;;;;;12.57;11.53;;;8.50;99.90;;;;;;5073798;28;20194;-78
2021/04/30 02:22:47;;;;;;;13.33;12.20;;;8.50;99.90;;;;;;5073562;28;20202;-78
2021/04/30 02:25:15;;;;;;;12.97;11.87;;;8.40;99.90;;;;;;5055651;28;20203;-77
2021/04/30 02:27:42;;;;;;;13.17;11.97;;;8.50;99.90;;;;;;5073503;28;20221;-78
2021/04/30 02:30:11;;;;;;;12.33;11.27;;;8.40;99.90;;;;;;5073552;28;20204;-78
2021/04/30 02:32:39;;;;;;;13.17;11.97;;;8.50;99.90;;;;;;5074221;28;20198;-79
2021/04/30 02:35:07;;;;;;;13.80;12.50;;;8.40;99.90;;;;;;5073029;28;20199;-78
2021/04/30 02:37:34;;;;;;;13.83;12.63;;;8.40;99.90;;;;;;5063325;28;20197;-77
2021/04/30 02:40:00;;;;;;;15.23;13.83;;;8.40;99.90;;;;;;5072952;28;20199;-77
2021/04/30 02:42:27;;;;;;;12.97;11.90;;;8.40;99.90;;;;;;5073086;28;20198;-77
2021/04/30 02:44:53;;;;;;;13.63;12.43;;;8.30;99.90;;;;;;5073651;28;20204;-78
2021/04/30 02:47:28;;;;;;;11.87;10.87;;;8.20;99.90;;;;;;5073117;28;20251;-76
2021/04/30 02:49:55;;;;;;;13.97;12.20;;;8.20;99.90;;;;;;5055504;28;20311;-76
2021/04/30 02:52:21;;;;;;;12.63;11.63;;;8.10;99.90;;;;;;5072676;28;20197;-76
2021/04/30 02:54:48;;;;;;;12.60;11.50;;;8.10;99.90;;;;;;5055229;28;20207;-76
2021/04/30 02:57:14;;;;;;;12.77;11.57;;;8.10;99.90;;;;;;5054608;28;20209;-76
2021/04/30 02:59:41;;;;;;;13.83;12.43;;;8.10;99.90;;;;;;5093284;22;20236;-74
2021/04/30 03:02:08;;;;;;;13.70;12.50;;;8.10;99.90;;;;;;5065202;28;20209;-75
2021/04/30 03:04:34;;;;;;;14.43;13.20;;;8.10;99.90;;;;;;5062067;28;20198;-74
2021/04/30 03:07:01;;;;;;;14.23;12.97;;;8.10;99.90;;;;;;5054488;28;20198;-78
2021/04/30 03:09:28;;;;;;;15.47;13.97;;;8.20;99.90;;;;;;5054979;28;20221;-78
2021/04/30 03:11:54;;;;;;;13.93;12.73;;;8.20;99.90;;;;;;5055647;28;20205;-77
2021/04/30 03:14:20;;;;;;;14.43;13.10;;;8.20;99.90;;;;;;5037640;28;20225;-78
2021/04/30 03:16:47;;;;;;;12.63;11.53;;;8.20;99.90;;;;;;5029977;28;20206;-79
2021/04/30 03:19:13;;;;;;;14.13;12.87;;;8.20;99.90;;;;;;5056040;28;20214;-78
2021/04/30 03:21:40;;;;;;;13.27;12.17;;;8.20;99.90;;;;;;5051112;28;20284;-78
2021/04/30 03:24:08;;;;;;;15.23;13.83;;;8.20;99.90;;;;;;5043935;28;20190;-79
2021/04/30 03:26:34;;;;;;;14.53;13.27;;;8.30;99.90;;;;;;5057982;28;20193;-75
2021/04/30 03:29:00;;;;;;;15.63;14.17;;;8.30;99.90;;;;;;5047283;28;20602;-76
2021/04/30 03:31:27;;;;;;;13.50;12.40;;;8.40;99.90;;;;;;5049617;28;20206;-76
2021/04/30 03:33:54;;;;;;;13.50;12.20;;;8.40;99.90;;;;;;5028048;28;20202;-75
2021/04/30 03:36:21;;;;;;;12.37;11.37;;;8.40;99.90;;;;;;5050927;28;20681;-76
2021/04/30 03:38:47;;;;;;;14.30;12.90;;;8.40;99.90;;;;;;5033429;28;20260;-75
2021/04/30 03:41:14;;;;;;;13.97;12.67;;;8.40;99.90;;;;;;5030088;28;20198;-76
2021/04/30 03:43:41;;;;;;;14.57;13.27;;;8.40;99.90;;;;;;5046942;28;20206;-76
2021/04/30 03:46:07;;;;;;;14.53;13.23;;;8.40;99.90;;;;;;5029191;28;20271;-76
2021/04/30 03:48:33;;;;;;;13.53;12.33;;;8.30;99.90;;;;;;5047210;28;20212;-76
2021/04/30 03:51:00;;;;;;;13.50;12.30;;;8.20;99.90;;;;;;5042810;28;20189;-76
2021/04/30 03:53:26;;;;;;;15.47;14.07;;;8.30;99.90;;;;;;5043038;28;20194;-76
2021/04/30 03:55:53;;;;;;;16.47;14.87;;;8.20;99.90;;;;;;5025260;28;20659;-76
2021/04/30 03:58:20;;;;;;;15.50;14.10;;;8.20;99.90;;;;;;5045444;28;20230;-76
2021/04/30 04:00:47;;;;;;;14.27;12.90;;;8.30;99.90;;;;;;5040565;28;20584;-76
2021/04/30 04:03:13;;;;;;;15.73;14.13;;;8.30;99.90;;;;;;5049323;28;20194;-76
2021/04/30 04:05:40;;;;;;;10.77;9.57;;;8.20;99.90;;;;;;5042901;28;20201;-75
2021/04/30 04:08:08;;;;;;;12.33;11.03;;;8.20;99.90;;;;;;5025095;28;20717;-76
2021/04/30 04:10:35;;;;;;;13.23;11.87;;;8.20;99.90;;;;;;5043237;28;20187;-76
2021/04/30 04:13:01;;;;;;;10.97;9.87;;;8.20;99.90;;;;;;5047668;28;20194;-76
2021/04/30 04:15:29;;;;;;;11.50;10.30;;;8.20;99.90;;;;;;5043374;28;20209;-76
2021/04/30 04:17:55;;;;;;;13.60;12.17;;;8.20;99.90;;;;;;5030827;28;20202;-76
2021/04/30 04:20:21;;;;;;;12.30;11.00;;;8.10;99.90;;;;;;5049040;28;20244;-76
2021/04/30 04:22:48;;;;;;;10.90;9.80;;;8.10;99.90;;;;;;5036975;28;20263;-76
2021/04/30 04:25:14;;;;;;;12.20;10.83;;;8.10;99.90;;;;;;5046545;28;20584;-76
2021/04/30 04:27:40;;;;;;;12.53;11.23;;;8.10;99.90;;;;;;5046667;28;20203;-77
2021/04/30 04:30:12;;;;;;;13.07;10.57;;;8.10;99.90;;;;;;5036584;28;20740;-76
2021/04/30 04:32:39;;;;;;;11.83;10.63;;;8.10;99.90;;;;;;5053696;28;20198;-76
2021/04/30 04:35:07;;;;;;;13.30;11.83;;;8.10;99.90;;;;;;5036701;28;20539;-76
2021/04/30 04:37:33;;;;;;;12.77;10.43;;;8.10;99.90;;;;;;5051862;28;20204;-76
2021/04/30 04:39:59;;;;;;;12.20;10.97;;;8.20;99.90;;;;;;5036443;28;20714;-76
2021/04/30 04:42:26;;;;;;;12.20;10.77;;;8.20;99.90;;;;;;5028460;28;20248;-75
2021/04/30 04:44:52;;;;;;;10.70;9.60;;;8.20;99.90;;;;;;5028485;28;20204;-75
2021/04/30 04:47:18;;;;;;;13.20;11.77;;;8.30;99.90;;;;;;5036664;28;20206;-76
2021/04/30 04:49:45;;;;;;;13.10;11.27;;;8.30;99.90;;;;;;5052850;28;20228;-76
2021/04/30 04:52:12;;;;;;;12.17;10.87;;;8.30;99.90;;;;;;5047169;28;20194;-76
2021/04/30 04:54:38;;;;;;;11.93;10.20;;;8.30;99.90;;;;;;5050297;28;20697;-76
2021/04/30 04:57:05;;;;;;;12.50;10.47;;;8.20;99.90;;;;;;5031937;28;20194;-76
2021/04/30 04:59:31;;;;;;;12.27;11.00;;;8.20;99.90;;;;;;5051305;28;20221;-76
2021/04/30 05:01:57;;;;;;;11.43;10.33;;;8.20;99.90;;;;;;5045664;28;20199;-76
2021/04/30 05:04:24;;;;;;;11.70;10.60;;;8.30;99.90;;;;;;5029786;28;20198;-76
2021/04/30 05:06:51;;;;;;;12.67;10.20;;;8.30;99.90;;;;;;5039767;28;20211;-76
2021/04/30 05:09:17;;;;;;;12.20;10.17;;;8.30;99.90;;;;;;5051375;28;20290;-76
2021/04/30 05:11:44;;;;;;;12.63;10.60;;;8.40;99.90;;;;;;5044554;28;20247;-76
2021/04/30 05:14:10;;;;;;;14.70;11.67;;;8.30;99.90;;;;;;5032341;28;20210;-76
2021/04/30 05:16:36;;;;;;;11.90;10.70;;;8.40;99.90;;;;;;5050076;28;20187;-76
2021/04/30 05:19:03;;;;;;;11.70;10.50;;;8.40;99.90;;;;;;5045590;28;20716;-76
2021/04/30 05:21:29;;;;;;;11.07;9.97;;;8.40;99.90;;;;;;5046591;28;20194;-76
2021/04/30 05:23:58;;;;;;;12.80;11.37;;;8.40;99.90;;;;;;5032409;28;20197;-76
2021/04/30 05:26:27;;;;;;;12.17;10.57;;;8.50;99.90;;;;;;5048129;28;20293;-76
2021/04/30 05:28:54;;;;;;;11.53;10.00;;;8.50;99.90;;;;;;5045138;28;20598;-76
2021/04/30 05:31:20;;;;;;;10.57;9.47;;;8.60;99.90;;;;;;5035387;28;20198;-76
2021/04/30 05:33:46;;;;;;;10.60;9.50;;;8.70;99.90;;;;;;5045389;28;20195;-76
2021/04/30 05:36:12;;;;;;;10.70;9.40;;;8.70;99.90;;;;;;5049397;28;20191;-76
2021/04/30 05:38:39;;;;;;;13.03;11.37;;;8.70;99.90;;;;;;5045164;28;20586;-76
2021/04/30 05:41:06;;;;;;;11.00;9.83;;;8.70;99.90;;;;;;5051992;28;20199;-77
2021/04/30 05:43:32;;;;;;;11.13;10.03;;;8.70;99.90;;;;;;5050389;28;20213;-75
2021/04/30 05:45:59;;;;;;;10.27;9.17;;;8.70;99.90;;;;;;5045057;28;20213;-76
2021/04/30 05:48:25;;;;;;;10.53;9.43;;;8.70;99.90;;;;;;5045071;28;20216;-76
2021/04/30 05:50:52;;;;;;;12.43;10.13;;;8.60;99.90;;;;;;5033691;28;20207;-77
2021/04/30 05:53:20;;;;;;;13.13;9.13;;;8.70;99.90;;;;;;5047953;28;20196;-76
2021/04/30 05:55:47;;;;;;;11.27;9.97;;;8.80;99.90;;;;;;5031779;28;20206;-77
2021/04/30 05:58:14;;;;;;;11.40;10.20;;;8.90;99.90;;;;;;5045766;28;20733;-76
2021/04/30 06:00:40;;;;;;;10.63;9.53;;;9.00;99.90;;;;;;5048265;28;20207;-76
2021/04/30 06:03:06;;;;;;;11.60;10.37;;;9.20;99.90;;;;;;5032100;28;20227;-77
2021/04/30 06:05:33;;;;;;;11.00;9.90;;;9.50;99.90;;;;;;5027035;28;20675;-76
2021/04/30 06:07:59;;;;;;;14.20;12.87;;;9.90;99.90;;;;;;5033031;28;20199;-76
2021/04/30 06:10:26;;;;;;;14.77;13.47;;;10.20;99.90;;;;;;5028524;28;20216;-76
2021/04/30 06:12:52;;;;;;;14.67;13.27;;;10.30;99.90;;;;;;5048995;28;20210;-77
2021/04/30 06:15:19;;;;;;;12.47;11.27;;;10.60;99.90;;;;;;5049981;28;20563;-77
2021/04/30 06:17:45;;;;;;;12.50;11.00;;;10.50;99.90;;;;;;5026347;28;20199;-77
2021/04/30 06:20:13;;;;;;;10.50;9.13;;;10.40;99.90;;;;;;5031417;28;20199;-77
2021/04/30 06:22:39;;;;;;;11.73;9.93;;;10.40;99.90;;;;;;5049076;28;20691;-76
2021/04/30 06:25:09;;;;;;;10.93;9.63;;;10.30;99.90;;;;;;5026903;28;20207;-76
2021/04/30 06:27:36;;;;;;;13.17;11.87;;;10.10;99.90;;;;;;5040931;28;20196;-76
2021/04/30 06:30:03;;;;;;;13.30;12.00;;;9.90;99.90;;;;;;5047356;28;20215;-76
2021/04/30 06:32:31;;;;;;;13.50;12.20;;;9.70;99.90;;;;;;5030209;28;20543;-75
2021/04/30 06:34:57;;;;;;;13.43;12.03;;;9.60;99.90;;;;;;5051224;28;20203;-77
2021/04/30 06:37:26;;;;;;;13.80;12.60;;;9.40;99.90;;;;;;5044208;28;20191;-76
2021/04/30 06:39:52;;;;;;;12.00;10.90;;;9.40;99.90;;;;;;5029510;28;20268;-76
2021/04/30 06:42:18;;;;;;;13.27;12.03;;;9.40;99.90;;;;;;5043256;28;20199;-77
2021/04/30 06:44:45;;;;;;;9.23;8.33;;;9.40;99.90;;;;;;5026083;28;20204;-76
2021/04/30 06:47:11;;;;;;;10.57;9.37;;;9.40;99.90;;;;;;5047821;28;20672;-76
2021/04/30 06:49:38;;;;;;;11.67;9.63;;;9.30;99.90;;;;;;5030521;28;20292;-76
2021/04/30 06:52:05;;;;;;;10.77;9.17;;;9.30;99.90;;;;;;5051922;28;20218;-77
2021/04/30 06:54:31;;;;;;;14.17;10.40;;;9.30;99.90;;;;;;5034372;28;20541;-76
2021/04/30 06:56:57;;;;;;;11.23;10.07;;;9.20;99.90;;;;;;5044059;28;20379;-77
2021/04/30 06:59:24;;;;;;;11.90;9.37;;;9.20;99.90;;;;;;5027871;28;20631;-76
2021/04/30 07:01:50;;;;;;;10.90;9.10;;;9.30;99.90;;;;;;5048191;28;20203;-77
2021/04/30 07:04:18;;;;;;;10.67;8.40;;;9.30;99.90;;;;;;5026474;28;20208;-76
2021/04/30 07:06:45;;;;;;;9.47;8.43;;;9.30;99.90;;;;;;5048350;28;20690;-76
2021/04/30 07:09:11;;;;;;;11.73;9.27;;;9.30;99.90;;;;;;5027773;28;20219;-76
2021/04/30 07:11:38;;;;;;;11.13;9.90;;;9.20;99.90;;;;;;5031042;28;20226;-76
2021/04/30 07:14:05;;;;;;;12.80;11.47;;;9.20;99.90;;;;;;5041801;28;20546;-76
2021/04/30 07:16:31;;;;;;;13.37;10.50;;;9.20;99.90;;;;;;5026657;28;20241;-76
2021/04/30 07:18:58;;;;;;;13.53;10.60;;;9.20;99.90;;;;;;5030039;28;20679;-76
2021/04/30 07:21:24;;;;;;;12.50;10.57;;;9.30;99.90;;;;;;5031036;28;20199;-76
2021/04/30 07:23:52;;;;;;;11.70;9.97;;;9.50;99.90;;;;;;5051520;28;20569;-76
2021/04/30 07:26:18;;;;;;;13.53;9.87;;;9.60;99.90;;;;;;5032994;28;20245;-76
2021/04/30 07:28:44;;;;;;;11.50;9.80;;;9.70;99.90;;;;;;5029327;28;20269;-77
2021/04/30 07:31:11;;;;;;;10.70;9.43;;;9.80;99.90;;;;;;5031836;28;20199;-76
2021/04/30 07:33:43;;;;;;;10.30;8.70;;;9.90;99.90;;;;;;5046508;28;20198;-76
2021/04/30 07:36:09;;;;;;;10.97;9.17;;;10.00;99.90;;;;;;5043972;28;20237;-77
2021/04/30 07:38:35;;;;;;;10.13;8.87;;;10.00;99.90;;;;;;5043092;28;20207;-76
2021/04/30 07:41:03;;;;;;;12.87;11.70;;;10.20;99.90;;;;;;5024890;28;20195;-77
2021/04/30 07:43:29;;;;;;;13.60;9.87;;;10.20;99.90;;;;;;5026637;28;20203;-77
2021/04/30 07:45:55;;;;;;;10.83;9.73;;;10.10;99.90;;;;;;5030103;28;20419;-77
2021/04/30 07:48:22;;;;;;;11.30;9.40;;;10.00;99.90;;;;;;5046736;28;20215;-77
2021/04/30 07:50:48;;;;;;;10.17;9.10;;;10.10;99.90;;;;;;5044999;28;20200;-76
2021/04/30 07:53:14;;;;;;;10.57;9.47;;;10.10;99.90;;;;;;5029958;28;20208;-77
2021/04/30 07:55:40;;;;;;;11.33;10.23;;;10.20;99.90;;;;;;5052155;28;20199;-77
2021/04/30 07:58:07;;;;;;;12.47;9.90;;;10.30;99.90;;;;;;5047500;28;20594;-76
2021/04/30 08:00:34;;;;;;;11.20;10.10;;;10.50;99.90;;;;;;5029195;28;20206;-77
2021/04/30 08:03:00;;;;;;;10.87;9.73;;;10.80;99.90;;;;;;5029143;28;20231;-77
2021/04/30 08:05:27;;;;;;;9.37;7.93;;;10.90;99.90;;;;;;5048879;28;20204;-77
2021/04/30 08:07:53;;;;;;;10.20;9.20;;;11.00;99.90;;;;;;5051630;28;20195;-76
2021/04/30 08:10:20;;;;;;;12.10;10.90;;;11.00;99.90;;;;;;5048940;28;20552;-77
2021/04/30 08:12:47;;;;;;;14.30;12.90;;;10.80;99.90;;;;;;5034886;28;20203;-76
2021/04/30 08:15:16;;;;;;;14.13;12.60;;;10.60;99.90;;;;;;5055225;28;20192;-77
2021/04/30 08:17:43;;;;;;;12.60;11.30;;;10.40;99.90;;;;;;5046660;28;20213;-76
2021/04/30 08:20:10;;;;;;;13.10;10.93;;;10.50;99.90;;;;;;5046598;28;20218;-76
2021/04/30 08:22:36;;;;;;;12.47;11.27;;;10.40;99.90;;;;;;5046882;28;20196;-77
2021/04/30 08:25:04;;;;;;;10.43;9.43;;;10.30;99.90;;;;;;5051400;28;20192;-77
2021/04/30 08:27:30;;;;;;;12.43;11.13;;;10.40;99.90;;;;;;5036149;28;20192;-77
2021/04/30 08:29:56;;;;;;;12.03;10.83;;;10.30;99.90;;;;;;5053721;28;20222;-77
2021/04/30 08:32:24;;;;;;;14.17;10.73;;;10.30;99.90;;;;;;5036856;28;20203;-76
2021/04/30 08:34:50;;;;;;;12.97;10.83;;;10.40;99.90;;;;;;5032384;28;20199;-77
2021/04/30 08:37:16;;;;;;;12.50;10.60;;;10.60;99.90;;;;;;5046593;28;20191;-76
2021/04/30 08:39:43;;;;;;;12.47;11.30;;;10.70;99.90;;;;;;5046371;28;20215;-76
2021/04/30 08:42:09;;;;;;;12.00;10.90;;;10.80;99.90;;;;;;5036507;28;20207;-77
2021/04/30 08:44:36;;;;;;;12.80;11.53;;;11.00;99.90;;;;;;5053040;28;20709;-77
2021/04/30 08:47:03;;;;;;;13.33;12.13;;;11.20;99.90;;;;;;5046611;28;20200;-77
2021/04/30 08:49:30;;;;;;;14.63;13.13;;;11.20;99.90;;;;;;5036867;28;20224;-77
2021/04/30 08:51:56;;;;;;;15.23;13.73;;;11.30;99.90;;;;;;5046524;28;20201;-77
2021/04/30 08:54:23;;;;;;;14.13;12.73;;;11.30;99.90;;;;;;5031652;28;20194;-77
2021/04/30 08:56:52;;;;;;;12.97;11.80;;;11.60;99.90;;;;;;5041495;28;20207;-77
2021/04/30 08:59:22;;;;;;;12.70;11.50;;;11.80;99.90;;;;;;5081339;22;20231;-76
2021/04/30 09:01:48;;;;;;;12.63;11.43;;;12.20;99.90;;;;;;5089054;28;20283;-76
2021/04/30 09:04:15;;;;;;;13.60;12.40;;;12.60;99.90;;;;;;5087210;28;20200;-76
2021/04/30 09:06:44;;;;;;;13.13;11.90;;;12.60;99.90;;;;;;5086305;28;20197;-76
2021/04/30 09:09:13;;;;;;;13.77;12.37;;;12.70;99.90;;;;;;5082582;28;20629;-77
2021/04/30 09:11:41;;;;;;;13.40;12.20;;;12.80;99.90;;;;;;5081096;28;20684;-76
2021/04/30 09:14:26;;;;;;;11.60;10.37;;;13.00;99.90;;;;;;5082843;28;20248;-76
2021/04/30 09:17:07;;;;;;;11.20;9.07;;;12.90;99.90;;;;;;5082826;28;20281;-77
2021/04/30 09:19:35;;;;;;;9.37;8.07;;;13.40;99.90;;;;;;5081624;28;20308;-74
2021/04/30 09:22:05;;;;;;;12.33;11.23;;;13.90;99.90;;;;;;5082096;28;20194;-76
2021/04/30 09:24:32;;;;;;;10.27;9.00;;;14.40;99.90;;;;;;5083732;28;20198;-77
2021/04/30 09:26:59;;;;;;;12.03;9.10;;;14.50;99.90;;;;;;5078677;28;20336;-76
2021/04/30 09:29:27;;;;;;;9.80;8.63;;;14.50;99.90;;;;;;5081688;28;20241;-76
2021/04/30 09:31:54;;;;;;;14.90;10.17;;;14.30;99.90;;;;;;5082052;28;20641;-76
2021/04/30 09:34:26;;;;;;;12.63;11.00;;;13.70;99.90;;;;;;5080175;28;20575;-77
2021/04/30 09:37:09;;;;;;;11.77;10.63;;;13.80;99.90;;;;;;5083507;28;20194;-76
2021/04/30 09:39:55;;;;;;;11.77;10.57;;;13.40;99.90;;;;;;5082621;28;20241;-76
2021/04/30 09:42:23;;;;;;;12.07;9.80;;;13.30;99.90;;;;;;5088430;28;20576;-76
2021/04/30 09:44:51;;;;;;;9.90;8.33;;;13.20;99.90;;;;;;5074489;28;20287;-77
2021/04/30 09:47:21;;;;;;;8.70;7.50;;;13.20;99.90;;;;;;5081905;28;20190;-76
2021/04/30 09:49:49;;;;;;;13.80;12.50;;;13.40;99.90;;;;;;5083020;28;20260;-76
2021/04/30 09:52:18;;;;;;;13.20;12.00;;;13.30;99.90;;;;;;5082140;28;20226;-76
2021/04/30 09:54:44;;;;;;;14.73;13.17;;;13.40;99.90;;;;;;5082997;28;20186;-76
2021/04/30 09:57:13;;;;;;;12.70;11.50;;;13.70;99.90;;;;;;5078957;28;20559;-76
2021/04/30 09:59:40;;;;;;;12.67;11.23;;;13.80;99.90;;;;;;5076700;28;20391;-77
2021/04/30 10:02:12;;;;;;;12.63;11.43;;;14.20;99.90;;;;;;5083804;28;20221;-76
2021/04/30 10:04:40;;;;;;;12.77;11.53;;;14.70;99.90;;;;;;5079338;28;20227;-77
2021/04/30 10:07:07;;;;;;;13.77;12.43;;;15.00;99.90;;;;;;5073243;28;20190;-77
2021/04/30 10:09:36;;;;;;;13.87;12.60;;;14.80;99.90;;;;;;5081322;28;20270;-76
2021/04/30 10:12:23;;;;;;;14.33;13.10;;;14.80;99.90;;;;;;5083012;28;20200;-76
2021/04/30 10:14:50;;;;;;;12.73;11.63;;;14.40;99.90;;;;;;5083763;28;20209;-76
2021/04/30 10:17:17;;;;;;;12.60;11.40;;;14.20;99.90;;;;;;5080156;28;20534;-76
2021/04/30 10:19:44;;;;;;;12.93;11.73;;;14.10;99.90;;;;;;5078158;28;20218;-77
2021/04/30 10:22:18;;;;;;;12.97;11.87;;;13.60;99.90;;;;;;5080630;28;20186;-77
2021/04/30 10:24:51;;;;;;;13.13;11.93;;;13.10;99.90;;;;;;5081403;28;20698;-76
2021/04/30 10:27:20;;;;;;;12.83;11.73;;;12.60;99.90;;;;;;5079606;28;20569;-76
2021/04/30 10:30:01;;;;;;;14.17;12.87;;;12.50;99.90;;;;;;5080497;28;20214;-76
2021/04/30 10:32:33;;;;;;;13.67;12.47;;;12.10;99.90;;;;;;5080506;28;20194;-76
2021/04/30 10:35:02;;;;;;;14.23;12.87;;;11.90;99.90;;;;;;5083540;28;20204;-76
2021/04/30 10:37:32;;;;;;;14.87;12.57;;;11.70;99.90;;;;;;5080189;28;20197;-76
2021/04/30 10:40:01;;;;;;;14.33;13.03;;;11.60;99.90;;;;;;5075827;28;20668;-76
2021/04/30 10:42:31;;;;;;;13.03;11.83;;;11.30;99.90;;;;;;5078369;28;20661;-76
2021/04/30 10:45:01;;;;;;;13.20;12.00;;;11.20;99.90;;;;;;5079996;28;20200;-77
2021/04/30 10:47:28;;;;;;;16.23;14.73;;;11.20;99.90;;;;;;5079767;28;20205;-76
2021/04/30 10:50:25;;;;;;;16.53;14.83;;;10.80;99.90;;;;;;5081781;28;20219;-76
2021/04/30 10:52:55;;;;;;;16.07;14.47;;;10.50;99.90;;;;;;4983927;28;20702;-76
2021/04/30 10:55:22;;;;;;;17.20;15.10;;;10.40;99.90;;;;;;5064917;28;20203;-76
2021/04/30 10:57:57;;;;;;;16.60;14.90;;;10.20;99.90;;;;;;5082190;28;20201;-76
2021/04/30 11:00:35;;;;;;;16.27;14.77;;;10.10;99.90;;;;;;5079028;28;20295;-76
2021/04/30 11:03:17;;;;;;;14.53;13.20;;;10.00;99.90;;;;;;5077337;28;20212;-77
2021/04/30 11:05:59;;;;;;;18.73;16.13;;;9.80;99.90;;;;;;5076155;28;20198;-76
2021/04/30 11:08:48;;;;;;;16.40;14.90;;;9.70;99.90;;;;;;5077965;28;20190;-76
2021/04/30 11:11:16;;;;;;;18.30;16.60;;;9.60;99.90;;;;;;5071996;28;20194;-76
2021/04/30 11:14:23;;;;;;;17.43;15.63;;;9.60;99.90;;;;;;5079391;28;20198;-76
2021/04/30 11:16:52;;;;;;;20.30;17.27;;;9.40;99.90;;;;;;5078308;28;20194;-76
2021/04/30 11:19:18;;;;;;;18.13;16.37;;;9.40;99.90;;;;;;5081097;28;20206;-75
2021/04/30 11:21:47;;;;;;;18.20;16.40;;;9.50;99.90;;;;;;5082471;28;20196;-76
2021/04/30 11:24:45;;;;;;;19.60;17.53;;;9.40;99.90;;;;;;5077057;28;20198;-76
2021/04/30 11:27:36;;;;;;;19.10;17.10;;;9.40;99.90;;;;;;5038324;28;20205;-76
2021/04/30 11:30:33;;;;;;;18.30;16.70;;;9.30;99.90;;;;;;5081354;28;20718;-77
2021/04/30 11:33:00;;;;;;;19.27;17.37;;;9.30;99.90;;;;;;5078963;28;20194;-76
2021/04/30 11:35:29;;;;;;;19.30;17.43;;;9.20;99.90;;;;;;5083555;28;20294;-76
2021/04/30 11:37:57;;;;;;;18.93;17.13;;;9.10;99.90;;;;;;5077248;28;20252;-76
2021/04/30 11:40:24;;;;;;;17.90;16.30;;;9.10;99.90;;;;;;5079617;28;20217;-76
2021/04/30 11:43:05;;;;;;;18.47;16.80;;;9.10;99.90;;;;;;5079814;28;20621;-76
2021/04/30 11:45:33;;;;;;;19.20;17.30;;;9.00;99.90;;;;;;5075590;28;20248;-77
2021/04/30 11:48:00;;;;;;;18.33;16.47;;;9.00;99.90;;;;;;5079901;28;20213;-76
2021/04/30 11:50:26;;;;;;;21.13;18.97;;;8.90;99.90;;;;;;5078086;28;20218;-76
2021/04/30 11:52:53;;;;;;;20.13;18.17;;;8.70;99.90;;;;;;5073422;28;20194;-76
2021/04/30 11:55:21;;;;;;;20.57;18.47;;;8.70;99.90;;;;;;5082034;28;20215;-76
2021/04/30 11:57:54;;;;;;;23.37;20.97;;;8.50;99.90;;;;;;5078743;28;20201;-76
2021/04/30 12:00:22;;;;;;;20.77;18.77;;;8.50;99.90;;;;;;5080860;28;20216;-75
2021/04/30 12:03:06;;;;;;;22.00;19.80;;;8.50;99.90;;;;;;5080807;28;20193;-76
2021/04/30 12:05:33;;;;;;;21.87;19.67;;;8.40;99.90;;;;;;5074083;28;20666;-76
2021/04/30 12:08:00;;;;;;;22.63;20.37;;;8.30;99.90;;;;;;5081755;28;20210;-76
2021/04/30 12:10:28;;;;;;;23.53;20.17;;;8.30;99.90;;;;;;5080826;28;20208;-76
2021/04/30 12:12:55;;;;;;;21.33;19.23;;;8.20;99.90;;;;;;5077552;28;20201;-76
2021/04/30 12:15:31;;;;;;;21.97;19.87;;;8.20;99.90;;;;;;5079375;28;20545;-76
2021/04/30 12:17:58;;;;;;;19.70;17.80;;;8.10;99.90;;;;;;5079276;28;20197;-76
2021/04/30 12:20:26;;;;;;;22.83;19.33;;;8.20;99.90;;;;;;5079240;28;20235;-76
2021/04/30 12:22:55;;;;;;;21.83;19.60;;;8.20;99.90;;;;;;5079969;28;20213;-76
2021/04/30 12:25:30;;;;;;;22.27;19.97;;;8.20;99.90;;;;;;5079440;28;20247;-76
2021/04/30 12:28:22;;;;;;;21.97;19.80;;;8.10;99.90;;;;;;5082776;28;20204;-76
2021/04/30 12:30:51;;;;;;;20.30;18.30;;;8.10;99.90;;;;;;5080416;28;20224;-76
2021/04/30 12:33:28;;;;;;;20.43;18.53;;;8.10;99.90;;;;;;5078051;28;20212;-76
2021/04/30 12:35:55;;;;;;;21.30;19.10;;;8.10;99.90;;;;;;5073857;28;20630;-76
2021/04/30 12:38:23;;;;;;;21.33;19.13;;;8.00;99.90;;;;;;5075868;28;20198;-76
2021/04/30 12:40:49;;;;;;;20.63;18.50;;;8.00;99.90;;;;;;5081502;28;20194;-76
2021/04/30 12:43:27;;;;;;;19.97;17.90;;;8.00;99.90;;;;;;5082822;28;20669;-76